createdAt,value
2018-04-13T07:19:01.809Z,37248.00
2018-04-13T07:20:01.832Z,36928.00
2018-04-13T07:21:01.879Z,45216.00
2018-04-13T07:22:01.929Z,50400.00
2018-04-13T07:23:02.004Z,47968.00
2018-04-13T07:24:02.062Z,48256.00
2018-04-13T07:25:02.102Z,54656.00
2018-04-13T07:26:02.135Z,58048.00
2018-04-13T07:27:02.190Z,60000.00
2018-04-13T07:28:02.231Z,58400.00
2018-04-13T07:29:02.314Z,54080.00
2018-04-13T07:30:02.334Z,51776.00
2018-04-13T07:31:02.389Z,54496.00
2018-04-13T07:32:02.435Z,60960.00
2018-04-13T07:33:02.488Z,58816.00
2018-04-13T07:34:02.576Z,56160.00
2018-04-13T07:35:02.589Z,57088.00
2018-04-13T07:36:02.645Z,57600.00
2018-04-13T07:37:02.689Z,54944.00
2018-04-13T07:38:02.744Z,51264.00
2018-04-13T07:39:02.818Z,46752.00
2018-04-13T07:40:02.873Z,45408.00
2018-04-13T07:41:02.903Z,49184.00
2018-04-13T07:42:02.951Z,52096.00
2018-04-13T07:43:03.002Z,51264.00
2018-04-13T07:44:03.052Z,52192.00
2018-04-13T07:45:03.198Z,61824.00
2018-04-13T07:46:03.157Z,76512.00
2018-04-13T07:47:03.206Z,82176.00
2018-04-13T07:48:03.259Z,73024.00
2018-04-13T07:49:03.309Z,57056.00
2018-04-13T07:50:03.387Z,47104.00
2018-04-13T07:51:03.415Z,46848.00
2018-04-13T07:52:03.467Z,55904.00
2018-04-13T07:53:03.519Z,64864.00
2018-04-13T07:54:03.575Z,63456.00
2018-04-13T07:55:03.654Z,58688.00
2018-04-13T07:56:03.676Z,53088.00
2018-04-13T07:57:03.727Z,51392.00
2018-04-13T07:58:03.793Z,47776.00
2018-04-13T07:59:03.835Z,48384.00
2018-04-13T08:00:03.907Z,50240.00
2018-04-13T08:01:03.937Z,48544.00
2018-04-13T08:02:03.986Z,49408.00
2018-04-13T08:03:04.040Z,48992.00
2018-04-13T08:04:04.090Z,47488.00
2018-04-13T08:05:04.180Z,60032.00
2018-04-13T08:06:04.194Z,66784.00
2018-04-13T08:07:04.245Z,62976.00
2018-04-13T08:08:04.322Z,54720.00
2018-04-13T08:09:04.359Z,48736.00
2018-04-13T08:10:04.410Z,50944.00
2018-04-13T08:11:04.479Z,45472.00
2018-04-13T08:12:04.512Z,37504.00
2018-04-13T08:13:04.562Z,34304.00
2018-04-13T08:14:04.614Z,30880.00
2018-04-13T08:15:04.664Z,38208.00
2018-04-13T08:16:04.742Z,48896.00
2018-04-13T08:17:04.771Z,55552.00
2018-04-13T08:18:04.860Z,30176.00
2018-04-13T08:19:04.877Z,31040.00
2018-04-13T08:20:04.925Z,34144.00
2018-04-13T08:21:05.005Z,44704.00
2018-04-13T08:22:05.029Z,67200.00
2018-04-13T08:23:05.081Z,82272.00
2018-04-13T08:24:05.134Z,83104.00
2018-04-13T08:25:05.210Z,55328.00
2018-04-13T08:26:05.239Z,36288.00
2018-04-13T08:27:05.315Z,43424.00
2018-04-13T08:28:05.339Z,40448.00
2018-04-13T08:29:05.393Z,49312.00
2018-04-13T08:30:06.006Z,47808.00
2018-04-13T08:31:05.496Z,39232.00
2018-04-13T08:32:05.562Z,32768.00
2018-04-13T08:33:05.601Z,29888.00
2018-04-13T08:34:05.650Z,24832.00
2018-04-13T08:35:05.725Z,23168.00
2018-04-13T08:36:05.762Z,29632.00
2018-04-13T08:37:05.806Z,48512.00
2018-04-13T08:38:05.858Z,54496.00
2018-04-13T08:39:05.908Z,63136.00
2018-04-13T08:40:05.989Z,66240.00
2018-04-13T08:41:06.014Z,70464.00
2018-04-13T08:42:06.063Z,72576.00
2018-04-13T08:43:06.117Z,69056.00
2018-04-13T08:44:06.185Z,60224.00
2018-04-13T08:45:06.251Z,52928.00
2018-04-13T08:46:06.271Z,55712.00
2018-04-13T08:47:06.320Z,51936.00
2018-04-13T08:48:06.372Z,52384.00
2018-04-13T08:49:06.568Z,56704.00
2018-04-13T08:50:06.512Z,57888.00
2018-04-13T08:51:06.525Z,61440.00
2018-04-13T08:52:06.618Z,60288.00
2018-04-13T08:53:06.633Z,62784.00
2018-04-13T08:54:06.715Z,60672.00
2018-04-13T08:55:06.770Z,57120.00
2018-04-13T08:56:06.783Z,54976.00
2018-04-13T08:57:06.835Z,56000.00
2018-04-13T08:58:06.913Z,54304.00
2018-04-13T08:59:06.937Z,57920.00
2018-04-13T09:00:06.989Z,58656.00
2018-04-13T09:01:07.040Z,63200.00
2018-04-13T09:02:07.093Z,64992.00
2018-04-13T09:03:07.170Z,62176.00
2018-04-13T09:04:07.196Z,66592.00
2018-04-13T09:05:07.256Z,67744.00
2018-04-13T09:06:07.324Z,62816.00
2018-04-13T09:07:07.351Z,53088.00
2018-04-13T09:08:07.449Z,51328.00
2018-04-13T09:09:07.466Z,76480.00
2018-04-13T09:10:07.508Z,78816.00
2018-04-13T09:11:07.559Z,68416.00
2018-04-13T09:12:07.613Z,65184.00
2018-04-13T09:13:07.696Z,63584.00
2018-04-13T09:14:07.756Z,61536.00
2018-04-13T09:15:07.767Z,62240.00
2018-04-13T09:16:07.818Z,76512.00
2018-04-13T09:17:07.870Z,92256.00
2018-04-13T09:18:07.969Z,100608.00
2018-04-13T09:19:07.980Z,107072.00
2018-04-13T09:20:08.034Z,119296.00
2018-04-13T09:21:08.079Z,126112.00
2018-04-13T09:22:08.132Z,128896.00
2018-04-13T09:23:08.211Z,112000.00
2018-04-13T09:24:08.238Z,96768.00
2018-04-13T09:25:08.287Z,97312.00
2018-04-13T09:26:08.340Z,89568.00
2018-04-13T09:27:08.392Z,83392.00
2018-04-13T09:28:08.479Z,88832.00
2018-04-13T09:29:08.537Z,101856.00
2018-04-13T09:30:08.552Z,97024.00
2018-04-13T09:31:08.603Z,92064.00
2018-04-13T09:32:08.657Z,89760.00
2018-04-13T09:33:08.709Z,83616.00
2018-04-13T09:34:08.786Z,79392.00
2018-04-13T09:35:08.813Z,79264.00
2018-04-13T09:36:08.867Z,89408.00
2018-04-13T09:37:08.924Z,94528.00
2018-04-13T09:38:08.973Z,99520.00
2018-04-13T09:39:09.052Z,99456.00
2018-04-13T09:40:09.080Z,96320.00
2018-04-13T09:41:09.131Z,91456.00
2018-04-13T09:42:09.184Z,87520.00
2018-04-13T09:43:09.235Z,80672.00
2018-04-13T09:44:09.314Z,74976.00
2018-04-13T09:45:09.350Z,67616.00
2018-04-13T09:46:09.421Z,69504.00
2018-04-13T09:47:09.469Z,69568.00
2018-04-13T09:48:09.506Z,73856.00
2018-04-13T09:49:09.553Z,75104.00
2018-04-13T09:50:09.607Z,71488.00
2018-04-13T09:51:09.682Z,74464.00
2018-04-13T09:52:09.713Z,69280.00
2018-04-13T09:53:09.771Z,63488.00
2018-04-13T09:54:09.816Z,61664.00
2018-04-13T09:55:09.876Z,63232.00
2018-04-13T09:56:09.960Z,72192.00
2018-04-13T09:57:09.980Z,79872.00
2018-04-13T09:58:10.030Z,80096.00
2018-04-13T09:59:10.083Z,87872.00
2018-04-13T10:00:10.132Z,94144.00
2018-04-13T10:01:10.213Z,100480.00
2018-04-13T10:02:10.261Z,103200.00
2018-04-13T10:03:10.292Z,102784.00
2018-04-13T10:04:10.347Z,93152.00
2018-04-13T10:05:10.395Z,90240.00
2018-04-13T10:06:10.446Z,89120.00
2018-04-13T10:07:10.523Z,82624.00
2018-04-13T10:08:10.554Z,72384.00
2018-04-13T10:09:10.606Z,68128.00
2018-04-13T10:10:10.658Z,61056.00
2018-04-13T10:11:10.709Z,61088.00
2018-04-13T10:12:10.786Z,60896.00
2018-04-13T10:13:10.844Z,58368.00
2018-04-13T10:14:10.864Z,63072.00
2018-04-13T10:15:10.918Z,65312.00
2018-04-13T10:16:10.971Z,64704.00
2018-04-13T10:17:11.021Z,70880.00
2018-04-13T10:18:11.098Z,67904.00
2018-04-13T10:19:11.124Z,69696.00
2018-04-13T10:20:11.178Z,75424.00
2018-04-13T10:21:11.233Z,81600.00
2018-04-13T10:22:11.297Z,83552.00
2018-04-13T10:23:11.355Z,83360.00
2018-04-13T10:24:11.390Z,84448.00
2018-04-13T10:25:11.435Z,86464.00
2018-04-13T10:26:11.487Z,89440.00
2018-04-13T10:27:11.541Z,99168.00
2018-04-13T10:28:11.624Z,103360.00
2018-04-13T10:29:11.668Z,109344.00
2018-04-13T10:30:11.694Z,104992.00
2018-04-13T10:31:11.751Z,96224.00
2018-04-13T10:32:11.803Z,83616.00
2018-04-13T10:33:11.853Z,80672.00
2018-04-13T10:34:11.929Z,78336.00
2018-04-13T10:35:11.958Z,80448.00
2018-04-13T10:36:12.018Z,85088.00
2018-04-13T10:37:12.062Z,83968.00
2018-04-13T10:38:12.116Z,85024.00
2018-04-13T10:39:12.200Z,86016.00
2018-04-13T10:40:12.223Z,85760.00
2018-04-13T10:41:12.273Z,84576.00
2018-04-13T10:42:12.327Z,78112.00
2018-04-13T10:43:12.380Z,74112.00
2018-04-13T10:44:12.453Z,70464.00
2018-04-13T10:45:12.507Z,65568.00
2018-04-13T10:46:12.539Z,63808.00
2018-04-13T10:47:12.593Z,64096.00
2018-04-13T10:48:12.642Z,68320.00
2018-04-13T10:49:12.699Z,71136.00
2018-04-13T10:50:12.791Z,69504.00
2018-04-13T10:51:12.805Z,69440.00
2018-04-13T10:52:12.854Z,75424.00
2018-04-13T10:53:12.907Z,81664.00
2018-04-13T10:54:12.962Z,88992.00
2018-04-13T10:55:13.052Z,96352.00
2018-04-13T10:56:13.103Z,106112.00
2018-04-13T10:57:13.132Z,115072.00
2018-04-13T10:58:13.173Z,115264.00
2018-04-13T10:59:13.228Z,106176.00
2018-04-13T11:00:13.283Z,102400.00
2018-04-13T11:01:13.359Z,97824.00
2018-04-13T11:02:13.392Z,101408.00
2018-04-13T11:03:13.440Z,107872.00
2018-04-13T11:04:13.496Z,114112.00
2018-04-13T11:05:13.548Z,124928.00
2018-04-13T11:06:13.625Z,125952.00
2018-04-13T11:07:13.655Z,129216.00
2018-04-13T11:08:13.716Z,97664.00
2018-04-13T11:09:13.767Z,55680.00
2018-04-13T11:10:13.817Z,73920.00
2018-04-13T11:11:13.892Z,65792.00
2018-04-13T11:12:13.955Z,65920.00
2018-04-13T11:13:13.974Z,76288.00
2018-04-13T11:14:14.028Z,62464.00
2018-04-13T11:15:14.084Z,50752.00
2018-04-13T11:16:14.144Z,62848.00
2018-04-13T11:17:14.227Z,86016.00
2018-04-13T11:18:14.244Z,146336.00
2018-04-13T11:19:14.297Z,149440.00
2018-04-13T11:20:14.356Z,156960.00
2018-04-13T11:21:14.404Z,155968.00
2018-04-13T11:22:14.499Z,157632.00
2018-04-13T11:23:14.511Z,148000.00
2018-04-13T11:24:14.573Z,142208.00
2018-04-13T11:25:14.618Z,139520.00
2018-04-13T11:26:14.675Z,131872.00
2018-04-13T11:27:14.755Z,122496.00
2018-04-13T11:28:14.805Z,103840.00
2018-04-13T11:29:14.833Z,120992.00
2018-04-13T11:30:14.888Z,119200.00
2018-04-13T11:31:14.944Z,105728.00
2018-04-13T11:32:14.999Z,98912.00
2018-04-13T11:33:15.087Z,97664.00
2018-04-13T11:34:15.108Z,70880.00
2018-04-13T11:35:15.169Z,91008.00
2018-04-13T11:36:15.218Z,103328.00
2018-04-13T11:37:15.276Z,106944.00
2018-04-13T11:38:15.352Z,98304.00
2018-04-13T11:39:15.385Z,114944.00
2018-04-13T11:40:15.443Z,128960.00
2018-04-13T11:41:15.498Z,137856.00
2018-04-13T11:42:15.553Z,79616.00
2018-04-13T11:43:15.642Z,142304.00
2018-04-13T11:44:15.663Z,138272.00
2018-04-13T11:45:15.717Z,142720.00
2018-04-13T11:46:15.773Z,136864.00
2018-04-13T11:47:15.829Z,151168.00
2018-04-13T11:48:15.922Z,155520.00
2018-04-13T11:49:15.940Z,149440.00
2018-04-13T11:50:15.996Z,133120.00
2018-04-13T11:51:16.054Z,119712.00
2018-04-13T11:52:16.109Z,107616.00
2018-04-13T11:53:16.184Z,103648.00
2018-04-13T11:54:16.243Z,103808.00
2018-04-13T11:55:16.311Z,111168.00
2018-04-13T11:56:16.330Z,121504.00
2018-04-13T11:57:16.387Z,129760.00
2018-04-13T11:58:16.451Z,132640.00
2018-04-13T11:59:16.534Z,128512.00
2018-04-13T12:00:16.553Z,119968.00
2018-04-13T12:01:16.612Z,104512.00
2018-04-13T12:02:16.665Z,97312.00
2018-04-13T12:03:16.727Z,92704.00
2018-04-13T12:04:16.806Z,89632.00
2018-04-13T12:05:16.857Z,90368.00
2018-04-13T12:06:16.893Z,98176.00
2018-04-13T12:07:16.947Z,113728.00
2018-04-13T12:08:17.008Z,132704.00
2018-04-13T12:09:17.059Z,145312.00
2018-04-13T12:10:17.139Z,125120.00
2018-04-13T12:11:17.173Z,153632.00
2018-04-13T12:12:17.232Z,158464.00
2018-04-13T12:13:17.286Z,145504.00
2018-04-13T12:14:17.343Z,131776.00
2018-04-13T12:15:17.426Z,112480.00
2018-04-13T12:16:17.458Z,102272.00
2018-04-13T12:17:17.521Z,101440.00
2018-04-13T12:18:17.570Z,108832.00
2018-04-13T12:19:17.637Z,113952.00
2018-04-13T12:20:17.712Z,123744.00
2018-04-13T12:21:17.744Z,128864.00
2018-04-13T12:22:17.801Z,130112.00
2018-04-13T12:23:17.861Z,122368.00
2018-04-13T12:24:17.916Z,115904.00
2018-04-13T12:25:18.001Z,110496.00
2018-04-13T12:26:18.032Z,107488.00
2018-04-13T12:27:18.117Z,107584.00
2018-04-13T12:28:18.145Z,107328.00
2018-04-13T12:29:18.203Z,105248.00
2018-04-13T12:30:18.261Z,90816.00
2018-04-13T12:31:18.356Z,80096.00
2018-04-13T12:32:18.400Z,82080.00
2018-04-13T12:33:18.430Z,82720.00
2018-04-13T12:34:18.492Z,82624.00
2018-04-13T12:35:18.547Z,81184.00
2018-04-13T12:36:18.607Z,80320.00
2018-04-13T12:37:18.688Z,81824.00
2018-04-13T12:38:18.740Z,86752.00
2018-04-13T12:39:18.778Z,93856.00
2018-04-13T12:40:18.834Z,98560.00
2018-04-13T12:41:18.897Z,98880.00
2018-04-13T12:42:30.599Z,97120.00
2018-04-13T12:43:19.010Z,95520.00
2018-04-13T12:44:19.066Z,97280.00
2018-04-13T12:45:19.124Z,100800.00
2018-04-13T12:46:19.912Z,100128.00
2018-04-13T12:47:19.270Z,102912.00
2018-04-13T12:48:19.301Z,101856.00
2018-04-13T12:49:19.358Z,96512.00
2018-04-13T12:50:19.416Z,92928.00
2018-04-13T12:51:19.483Z,88672.00
2018-04-13T12:52:19.554Z,88768.00
2018-04-13T12:53:19.592Z,93920.00
2018-04-13T12:54:19.712Z,99456.00
2018-04-13T12:55:19.797Z,105920.00
2018-04-13T12:56:19.781Z,109504.00
2018-04-13T12:57:19.820Z,107264.00
2018-04-13T12:58:19.882Z,102816.00
2018-04-13T12:59:19.937Z,99168.00
2018-04-13T13:00:20.022Z,92448.00
2018-04-13T13:01:20.059Z,86176.00
2018-04-13T13:02:20.116Z,81536.00
2018-04-13T13:03:20.170Z,76928.00
2018-04-13T13:04:20.231Z,76672.00
2018-04-13T13:05:20.321Z,78368.00
2018-04-13T13:06:20.350Z,79840.00
2018-04-13T13:07:20.407Z,78848.00
2018-04-13T13:08:20.465Z,75232.00
2018-04-13T13:09:20.528Z,71584.00
2018-04-13T13:10:20.624Z,68288.00
2018-04-13T13:11:20.647Z,66336.00
2018-04-13T13:12:20.703Z,67200.00
2018-04-13T13:13:20.762Z,68640.00
2018-04-13T13:14:20.821Z,69824.00
2018-04-13T13:15:20.919Z,73376.00
2018-04-13T13:16:20.940Z,75040.00
2018-04-13T13:17:21.002Z,77152.00
2018-04-13T13:18:21.056Z,71520.00
2018-04-13T13:19:21.119Z,63968.00
2018-04-13T13:20:21.201Z,51424.00
2018-04-13T13:21:21.260Z,47584.00
2018-04-13T13:22:21.298Z,46112.00
2018-04-13T13:23:21.355Z,41184.00
2018-04-13T13:24:21.416Z,49984.00
2018-04-13T13:25:21.474Z,58528.00
2018-04-13T13:26:21.559Z,67776.00
2018-04-13T13:27:21.593Z,71456.00
2018-04-13T13:28:21.652Z,77536.00
2018-04-13T13:29:21.717Z,78656.00
2018-04-13T13:30:21.771Z,73600.00
2018-04-13T13:31:21.854Z,68224.00
2018-04-13T13:32:21.894Z,64608.00
2018-04-13T13:33:21.949Z,63968.00
2018-04-13T13:34:22.012Z,60864.00
2018-04-13T13:35:22.073Z,70848.00
2018-04-13T13:36:22.158Z,76448.00
2018-04-13T13:37:22.192Z,84864.00
2018-04-13T13:38:22.252Z,84672.00
2018-04-13T13:39:22.309Z,76992.00
2018-04-13T13:40:22.370Z,72320.00
2018-04-13T13:41:22.460Z,64384.00
2018-04-13T13:42:22.495Z,62784.00
2018-04-13T13:43:22.549Z,69216.00
2018-04-13T13:44:22.614Z,77280.00
2018-04-13T13:45:22.680Z,86656.00
2018-04-13T13:46:22.783Z,70176.00
2018-04-13T13:47:22.794Z,92704.00
2018-04-13T13:48:22.849Z,81088.00
2018-04-13T13:49:22.912Z,67456.00
2018-04-13T13:50:22.978Z,59616.00
2018-04-13T13:51:23.079Z,62304.00
2018-04-13T13:52:23.093Z,69216.00
2018-04-13T13:53:23.155Z,74624.00
2018-04-13T13:54:23.211Z,80736.00
2018-04-13T13:55:23.276Z,84704.00
2018-04-13T13:56:23.357Z,87168.00
2018-04-13T13:57:23.397Z,85760.00
2018-04-13T13:58:23.464Z,79712.00
2018-04-13T13:59:23.546Z,73760.00
2018-04-13T14:00:23.577Z,72928.00
2018-04-13T14:01:23.636Z,77024.00
2018-04-13T14:02:23.749Z,82784.00
2018-04-13T14:03:23.757Z,85504.00
2018-04-13T14:04:23.826Z,84032.00
2018-04-13T14:05:23.881Z,78784.00
2018-04-13T14:06:23.938Z,74016.00
2018-04-13T14:07:24.024Z,74816.00
2018-04-13T14:08:24.060Z,80928.00
2018-04-13T14:09:24.165Z,85728.00
2018-04-13T14:10:24.186Z,80000.00
2018-04-13T14:11:24.245Z,70112.00
2018-04-13T14:12:24.303Z,62336.00
2018-04-13T14:13:24.362Z,57952.00
2018-04-13T14:14:24.466Z,60608.00
2018-04-13T14:15:24.485Z,68128.00
2018-04-13T14:16:24.548Z,78208.00
2018-04-13T14:17:24.609Z,83104.00
2018-04-13T14:18:24.697Z,83168.00
2018-04-13T14:19:24.731Z,77056.00
2018-04-13T14:20:24.804Z,72416.00
2018-04-13T14:21:24.858Z,69248.00
2018-04-13T14:22:24.917Z,71456.00
2018-04-13T14:23:25.003Z,74272.00
2018-04-13T14:24:25.041Z,78528.00
2018-04-13T14:25:25.128Z,81568.00
2018-04-13T14:26:25.165Z,82752.00
2018-04-13T14:27:25.233Z,79392.00
2018-04-13T14:28:25.295Z,74752.00
2018-04-13T14:29:25.364Z,73056.00
2018-04-13T14:30:25.490Z,72512.00
2018-04-13T14:31:25.478Z,73120.00
2018-04-13T14:32:25.551Z,73088.00
2018-04-13T14:33:25.606Z,69856.00
2018-04-13T14:34:25.693Z,65440.00
2018-04-13T14:35:25.767Z,63776.00
2018-04-13T14:36:25.795Z,66656.00
2018-04-13T14:37:25.857Z,68160.00
2018-04-13T14:38:25.923Z,68288.00
2018-04-13T14:39:25.992Z,68448.00
2018-04-13T14:40:26.072Z,71616.00
2018-04-13T14:41:26.107Z,71520.00
2018-04-13T14:42:26.170Z,69600.00
2018-04-13T14:43:26.234Z,68160.00
2018-04-13T14:44:26.296Z,66944.00
2018-04-13T14:45:26.382Z,63168.00
2018-04-13T14:46:26.421Z,63712.00
2018-04-13T14:47:26.486Z,67712.00
2018-04-13T14:48:26.548Z,68608.00
2018-04-13T14:49:26.609Z,65088.00
2018-04-13T14:50:26.695Z,63456.00
2018-04-13T14:51:26.737Z,64320.00
2018-04-13T14:52:26.803Z,60704.00
2018-04-13T14:53:26.864Z,55488.00
2018-04-13T14:54:26.927Z,55200.00
2018-04-13T14:55:27.010Z,57376.00
2018-04-13T14:56:27.054Z,61248.00
2018-04-13T14:57:27.141Z,62624.00
2018-04-13T14:58:27.179Z,58944.00
2018-04-13T14:59:27.242Z,55552.00
2018-04-13T15:00:27.304Z,56096.00
2018-04-13T15:01:27.365Z,56128.00
2018-04-13T15:02:27.452Z,51840.00
2018-04-13T15:03:27.502Z,47392.00
2018-04-13T15:04:27.556Z,43936.00
2018-04-13T15:05:27.619Z,39424.00
2018-04-13T15:06:27.688Z,36160.00
2018-04-13T15:07:27.778Z,34624.00
2018-04-13T15:08:27.804Z,35104.00
2018-04-13T15:09:27.871Z,38656.00
2018-04-13T15:10:27.930Z,41600.00
2018-04-13T15:11:27.996Z,39808.00
2018-04-13T15:12:28.079Z,36320.00
2018-04-13T15:13:28.145Z,38496.00
2018-04-13T15:14:28.185Z,41984.00
2018-04-13T15:15:28.250Z,41824.00
2018-04-13T15:16:28.313Z,37632.00
2018-04-13T15:17:28.373Z,35328.00
2018-04-13T15:18:28.463Z,31904.00
2018-04-13T15:19:28.528Z,31232.00
2018-04-13T15:20:28.563Z,35424.00
2018-04-13T15:21:28.627Z,36896.00
2018-04-13T15:22:28.693Z,28672.00
2018-04-13T15:23:28.756Z,22528.00
2018-04-13T15:24:28.861Z,25184.00
2018-04-13T15:25:28.883Z,28960.00
2018-04-13T15:26:28.948Z,28512.00
2018-04-13T15:27:29.011Z,24384.00
2018-04-13T15:28:29.078Z,21984.00
2018-04-13T15:29:29.164Z,20640.00
2018-04-13T15:30:29.204Z,17888.00
2018-04-13T15:31:29.270Z,16416.00
2018-04-13T15:32:29.332Z,15340.00
2018-04-13T15:33:29.397Z,15040.00
2018-04-13T15:34:29.483Z,15100.00
2018-04-13T15:35:29.549Z,14296.00
2018-04-13T15:36:29.595Z,13416.00
2018-04-13T15:37:29.653Z,13028.00
2018-04-13T15:38:29.717Z,12864.00
2018-04-13T15:39:29.781Z,12632.00
2018-04-13T15:40:29.887Z,12248.00
2018-04-13T15:41:29.908Z,11904.00
2018-04-13T15:42:29.972Z,11632.00
2018-04-13T15:43:30.040Z,11388.00
2018-04-13T15:44:30.103Z,11260.00
2018-04-13T15:45:30.190Z,11060.00
2018-04-13T15:46:30.263Z,10892.00
2018-04-13T15:47:30.294Z,10812.00
2018-04-13T15:48:30.362Z,10804.00
2018-04-13T15:49:30.420Z,10824.00
2018-04-13T15:50:30.487Z,10820.00
2018-04-13T15:51:30.616Z,10752.00
2018-04-13T15:52:30.613Z,10780.00
2018-04-13T15:53:30.676Z,10888.00
2018-04-13T15:54:30.747Z,11012.00
2018-04-13T15:55:30.805Z,11212.00
2018-04-13T15:56:30.911Z,11520.00
2018-04-13T15:57:30.931Z,11924.00
2018-04-13T15:58:30.998Z,12952.00
2018-04-13T15:59:31.060Z,13760.00
2018-04-13T16:00:31.123Z,14168.00
2018-04-13T16:01:31.213Z,14268.00
2018-04-13T16:02:31.283Z,14112.00
2018-04-13T16:03:31.317Z,13968.00
2018-04-13T16:04:31.382Z,13676.00
2018-04-13T16:05:31.444Z,12680.00
2018-04-13T16:06:31.507Z,10948.00
2018-04-13T16:07:31.609Z,9532.00
2018-04-13T16:08:31.635Z,9020.00
2018-04-13T16:09:31.699Z,9020.00
2018-04-13T16:10:31.762Z,9460.00
2018-04-13T16:11:31.821Z,10024.00
2018-04-13T16:12:31.918Z,8844.00
2018-04-13T16:13:31.946Z,9632.00
2018-04-13T16:14:32.007Z,10852.00
2018-04-13T16:15:32.072Z,11532.00
2018-04-13T16:16:32.127Z,12560.00
2018-04-13T16:17:32.209Z,12600.00
2018-04-13T16:18:32.270Z,11256.00
2018-04-13T16:19:32.302Z,10480.00
2018-04-13T16:20:32.367Z,10024.00
2018-04-13T16:21:32.417Z,10020.00
2018-04-13T16:22:32.478Z,10464.00
2018-04-13T16:23:32.562Z,10364.00
2018-04-13T16:24:32.591Z,10520.00
2018-04-13T16:25:32.648Z,10808.00
2018-04-13T16:26:32.714Z,10888.00
2018-04-13T16:27:32.760Z,10744.00
2018-04-13T16:28:32.845Z,10600.00
2018-04-13T16:29:32.872Z,10944.00
2018-04-13T16:30:32.923Z,11440.00
2018-04-13T16:31:32.976Z,11400.00
2018-04-13T16:32:33.035Z,11064.00
2018-04-13T16:33:33.129Z,10536.00
2018-04-13T16:34:33.139Z,10044.00
2018-04-13T16:35:33.197Z,9572.00
2018-04-13T16:36:33.252Z,9032.00
2018-04-13T16:37:33.303Z,8412.00
2018-04-13T16:38:33.380Z,7732.00
2018-04-13T16:39:33.410Z,7168.00
2018-04-13T16:40:33.488Z,6820.00
2018-04-13T16:41:33.517Z,6644.00
2018-04-13T16:42:33.570Z,6524.00
2018-04-13T16:43:33.621Z,6392.00
2018-04-13T16:44:33.674Z,6204.00
2018-04-13T16:45:33.755Z,5968.00
2018-04-13T16:46:33.780Z,5740.00
2018-04-13T16:47:33.834Z,5740.00
2018-04-13T16:48:33.884Z,6088.00
2018-04-13T16:49:33.975Z,6524.00
2018-04-13T16:50:34.037Z,7048.00
2018-04-13T16:51:34.040Z,7504.00
2018-04-13T16:52:34.100Z,7820.00
2018-04-13T16:53:34.143Z,7992.00
2018-04-13T16:54:34.222Z,8164.00
2018-04-13T16:55:34.254Z,8236.00
2018-04-13T16:56:34.329Z,8352.00
2018-04-13T16:57:34.352Z,8228.00
2018-04-13T16:58:34.406Z,7980.00
2018-04-13T16:59:34.457Z,7664.00
2018-04-13T17:00:34.511Z,7108.00
2018-04-13T17:01:34.582Z,6356.00
2018-04-13T17:02:34.610Z,5732.00
2018-04-13T17:03:34.666Z,5288.00
2018-04-13T17:04:34.718Z,4948.00
2018-04-13T17:05:34.767Z,4716.00
2018-04-13T17:06:34.852Z,4528.00
2018-04-13T17:07:34.872Z,4392.00
2018-04-13T17:08:34.922Z,4332.00
2018-04-13T17:09:34.971Z,4352.00
2018-04-13T17:10:35.024Z,4424.00
2018-04-13T17:11:35.101Z,4556.00
2018-04-13T17:12:35.151Z,4740.00
2018-04-13T17:13:35.180Z,4916.00
2018-04-13T17:14:35.232Z,4988.00
2018-04-13T17:15:35.282Z,4888.00
2018-04-13T17:16:35.372Z,4640.00
2018-04-13T17:17:35.384Z,4360.00
2018-04-13T17:18:35.436Z,4000.00
2018-04-13T17:19:35.491Z,3716.00
2018-04-13T17:20:35.540Z,3456.00
2018-04-13T17:21:35.615Z,3268.00
2018-04-13T17:22:35.662Z,3140.00
2018-04-13T17:23:35.692Z,3100.00
2018-04-13T17:24:35.743Z,3088.00
2018-04-13T17:25:35.793Z,3028.00
2018-04-13T17:26:35.847Z,2916.00
2018-04-13T17:27:35.922Z,2796.00
2018-04-13T17:28:35.975Z,2620.00
2018-04-13T17:29:35.995Z,2480.00
2018-04-13T17:30:36.046Z,2408.00
2018-04-13T17:31:36.098Z,2392.00
2018-04-13T17:32:36.174Z,2392.00
2018-04-13T17:33:36.232Z,2388.00
2018-04-13T17:34:36.271Z,2316.00
2018-04-13T17:35:36.303Z,2220.00
2018-04-13T17:36:36.351Z,2076.00
2018-04-13T17:37:36.404Z,1896.00
2018-04-13T17:38:36.484Z,1680.00
2018-04-13T17:39:36.504Z,1520.00
2018-04-13T17:40:36.552Z,1424.00
2018-04-13T17:41:36.603Z,1364.00
2018-04-13T17:42:36.651Z,1316.00
2018-04-13T17:43:36.727Z,1276.00
2018-04-13T17:44:36.755Z,1228.00
2018-04-13T17:45:36.834Z,1184.00
2018-04-13T17:46:36.852Z,1140.00
2018-04-13T17:47:36.902Z,1096.00
2018-04-13T17:48:36.953Z,1048.00
2018-04-13T17:49:37.035Z,1004.00
2018-04-13T17:50:37.053Z,960.00
2018-04-13T17:51:37.104Z,912.00
2018-04-13T17:52:37.153Z,860.00
2018-04-13T17:53:37.207Z,812.00
2018-04-13T17:54:37.280Z,756.00
2018-04-13T17:55:37.304Z,712.00
2018-04-13T17:56:37.380Z,668.00
2018-04-13T17:57:37.404Z,624.00
2018-04-13T17:58:37.457Z,576.00
2018-04-13T17:59:37.504Z,532.00
2018-04-13T18:00:37.580Z,488.00
2018-04-13T18:01:37.607Z,448.00
2018-04-13T18:02:37.653Z,412.00
2018-04-13T18:03:37.703Z,380.00
2018-04-13T18:04:37.752Z,348.00
2018-04-13T18:05:37.826Z,316.00
2018-04-13T18:06:37.859Z,288.00
2018-04-13T18:07:37.899Z,252.00
2018-04-13T18:08:37.951Z,228.00
2018-04-13T18:09:38.001Z,200.00
2018-04-13T18:10:38.070Z,180.00
2018-04-13T18:11:38.100Z,156.00
2018-04-13T18:12:38.177Z,136.00
2018-04-13T18:13:38.194Z,120.00
2018-04-13T18:14:38.248Z,104.00
2018-04-13T18:15:38.330Z,88.00
2018-04-13T18:16:38.347Z,80.00
2018-04-13T18:17:38.393Z,68.00
2018-04-13T18:18:38.442Z,60.00
2018-04-13T18:19:38.493Z,48.00
2018-04-13T18:20:38.572Z,40.00
2018-04-13T18:21:40.267Z,32.00
2018-04-13T18:22:38.643Z,28.00
2018-04-13T18:23:38.689Z,24.00
2018-04-13T18:24:38.742Z,20.00
2018-04-13T18:25:38.820Z,16.00
2018-04-13T18:26:39.791Z,16.00
2018-04-13T18:27:38.889Z,12.00
2018-04-13T18:28:38.941Z,8.00
2018-04-13T18:29:38.986Z,8.00
2018-04-13T18:30:39.075Z,8.00
2018-04-13T18:31:39.083Z,8.00
2018-04-13T18:32:39.136Z,4.00
2018-04-13T18:33:39.181Z,4.00
2018-04-13T18:34:39.248Z,4.00
2018-04-13T18:35:39.305Z,4.00
2018-04-13T18:36:39.332Z,4.00
2018-04-13T18:37:39.377Z,0.00
2018-04-13T18:38:39.474Z,0.00
2018-04-13T18:39:39.478Z,0.00
2018-04-13T18:40:39.526Z,0.00
2018-04-13T18:41:39.576Z,0.00
2018-04-13T18:42:39.627Z,0.00
2018-04-13T18:43:39.704Z,0.00
2018-04-13T18:44:39.721Z,0.00
2018-04-13T18:45:39.772Z,0.00
2018-04-13T18:46:39.819Z,0.00
2018-04-13T18:47:39.870Z,0.00
2018-04-13T18:48:39.942Z,0.00
2018-04-13T18:49:39.971Z,0.00
2018-04-13T18:50:40.014Z,0.00
2018-04-13T18:51:40.095Z,0.00
2018-04-13T18:52:40.112Z,0.00
2018-04-13T18:53:40.161Z,0.00
2018-04-13T18:54:40.212Z,0.00
2018-04-13T18:55:40.260Z,0.00
2018-04-13T18:56:40.334Z,0.00
2018-04-13T18:57:40.359Z,0.00
2018-04-13T18:58:40.407Z,0.00
2018-04-13T18:59:40.456Z,0.00
2018-04-13T19:00:40.505Z,0.00
2018-04-13T19:01:40.595Z,0.00
2018-04-13T19:02:40.602Z,0.00
2018-04-13T19:03:41.568Z,0.00
2018-04-13T19:04:40.701Z,0.00
2018-04-13T19:05:40.752Z,0.00
2018-04-13T19:06:40.826Z,0.00
2018-04-13T19:07:40.856Z,0.00
2018-04-13T19:08:40.909Z,0.00
2018-04-13T19:09:40.946Z,0.00
2018-04-13T19:10:40.996Z,0.00